Changewater, New Jersey
Current Conditions -  °F | °C
As of 5:53 PM on Tuesday 21 Oct 2014 (Local Time) from KSMQ Reporting Station
Heavy Rain Heavy Rain  
Wind Chill: 60°   Ceiling: 3900
Heat Index: 60°   Visibility: 1mi
Dew Point: 56°   Wind: 6mph
Humidity: 86%   Direction: 70°ENE
Pressure: 29.82"   Gusts: NA
Location:  40.74°N, 74.94°W
Report Text: KSMQ 212153Z AUTO 07005KT 1SM +RA BR FEW028 BKN039 OVC050 16/13 A2982 RMK AO2 LTG DSNT N AND NE RAB23 TSB33E48 SLP097 P0021 T01560133
Loading
Personal Weather Stations






























Interactive Weather Map
Tropical Storm Tracking
New forecast layout! Learn more

10-Day Weather Forecast

Advertisements
Track Severe Weather on mobile